KONL

The O'neill Municipal-John L Baker Field Airport

O'neill, Nebraska, USA
METAR KONL 182135Z AUTO 17009KT 10SM SCT100 30/19 A2999 RMK AO2 T02950192
Observed Flight Rules
Aug-18 @ 21:35 UTC (20 minutes ago) Visual Flight Rules
Wind Visibility Clouds
170° at 9 knots 10 miles
  • Scattered at 10,000' AGL
Temperatures Readings
Current 30°C / 86°F
Dewpoint 19°C / 66°F
Humidity 52%
Altimeter 29.99" Hg
Pressure 1016 hPa
Elevation 619
METAR KONL 182135Z AUTO 17009KT 10SM SCT100 30/19 A2999 RMK AO2 T02950192
Observed Flight Rules
Aug-18 @ 21:35 UTC
(20 minutes ago)
VFR
Wind Visibility
170° at 9 knots 10 miles
Clouds
  • Scattered at 10,000' AGL
Temperature Dewpoint
30°C / 86°F 19°C / 66°F
Humidity Altimeter Pressure
52% 29.99" Hg 1016 hPa